North Conway, New Hampshire
Current Conditions -  °F | °C
As of 7:54 AM on Thursday 23 Oct 2014 (Local Time) from KIZG Reporting Station
Light Rain Light Rain  
Wind Chill: 43°   Ceiling: 1600
Heat Index: 48°   Visibility: 10mi
Dew Point: 45°   Wind: 13mph
Humidity: 89%   Direction: 360°N
Pressure: 29.87"   Gusts: 18mph
Location:  44.05°N, 71.13°W
Report Text: KIZG 231154Z AUTO 36011G16KT 10SM -RA OVC016 09/07 A2987 RMK AO2 SLP118 P0001 60014 70048 T00890072 10089 20078 56012
Loading
Personal Weather Stations






























Interactive Weather Map
Tropical Storm Tracking
New forecast layout! Learn more

10-Day Weather Forecast

Advertisements
Track Severe Weather on mobile